Time;durP1;ratioP1;P1;durP2;ratioP2;P2;SDS_P1;SDS_P2;PMS_P1;PMS_P2;Temp;Humidity;BMP_temperature;BMP_pressure;BME280_temperature;BME280_humidity;BME280_pressure;Samples;Min_cycle;Max_cycle;Signal;HPM_P1;HPM_P2
2021/05/29 00:00:56;;;;;;;0.73;0.73;;;19.50;45.40;;;23.14;31.01;102122.06;5133699;27;20039;-63
2021/05/29 00:03:24;;;;;;;0.50;0.50;;;19.50;45.30;;;23.16;31.04;102122.84;5115045;28;20043;-63
2021/05/29 00:05:51;;;;;;;0.98;0.70;;;19.50;45.30;;;23.15;31.17;102123.75;5115278;28;20039;-64
2021/05/29 00:08:17;;;;;;;0.70;0.70;;;19.60;45.40;;;23.15;31.09;102117.56;5115765;28;20057;-64
2021/05/29 00:10:47;;;;;;;0.70;0.70;;;19.50;45.30;;;23.13;31.05;102113.16;5132697;28;20047;-64
2021/05/29 00:13:14;;;;;;;0.70;0.70;;;19.60;45.30;;;23.16;31.09;102116.66;5133493;27;20051;-64
2021/05/29 00:15:40;;;;;;;0.47;0.47;;;19.60;45.30;;;23.16;31.20;102113.97;5115609;28;20047;-63
2021/05/29 00:18:07;;;;;;;0.70;0.70;;;19.50;45.30;;;23.13;31.02;102106.97;5115039;28;20043;-64
2021/05/29 00:20:37;;;;;;;0.60;0.60;;;19.50;45.30;;;23.14;31.03;102111.38;5132299;28;20100;-64
2021/05/29 00:23:03;;;;;;;0.65;0.65;;;19.50;45.30;;;23.14;31.01;102111.38;5115272;28;20509;-64
2021/05/29 00:25:29;;;;;;;0.50;0.50;;;19.50;45.30;;;23.10;31.06;102109.78;5114835;28;20039;-64
2021/05/29 00:27:55;;;;;;;0.68;0.68;;;19.50;45.30;;;23.15;31.03;102128.25;5133507;28;20047;-64
2021/05/29 00:30:21;;;;;;;0.52;0.52;;;19.50;45.30;;;23.11;31.25;102122.22;5133628;27;20440;-64
2021/05/29 00:32:47;;;;;;;0.68;0.60;;;19.60;45.40;;;23.12;31.01;102119.47;5131764;28;20082;-64
2021/05/29 00:35:13;;;;;;;0.75;0.70;;;19.50;45.40;;;23.13;31.09;102125.66;5132785;27;20910;-63
2021/05/29 00:37:38;;;;;;;0.68;0.60;;;19.50;45.40;;;23.12;31.12;102116.78;5135598;28;20130;-63
2021/05/29 00:40:07;;;;;;;0.63;0.63;;;19.50;45.40;;;23.07;31.12;102110.84;5118679;28;20047;-63
2021/05/29 00:42:33;;;;;;;0.77;0.77;;;19.50;45.40;;;23.11;31.03;102123.06;5118326;28;20044;-64
2021/05/29 00:44:59;;;;;;;0.60;0.60;;;19.50;45.40;;;23.08;31.09;102127.69;5135865;28;20170;-63
2021/05/29 00:47:27;;;;;;;0.73;0.70;;;19.50;45.40;;;23.09;31.27;102138.28;5135423;28;20498;-63
2021/05/29 00:50:10;;;;;;;0.73;0.73;;;19.50;45.40;;;23.08;31.06;102139.22;5118242;28;20043;-64
2021/05/29 00:52:36;;;;;;;0.60;0.60;;;19.50;45.40;;;23.09;31.24;102137.44;5101125;28;20035;-63
2021/05/29 00:55:08;;;;;;;0.60;0.60;;;19.50;45.40;;;23.03;31.33;102124.38;5118325;28;20591;-63
2021/05/29 00:57:41;;;;;;;0.60;0.60;;;19.50;45.50;;;23.02;31.12;102134.19;5118180;28;20047;-63
2021/05/29 01:00:09;;;;;;;0.60;0.60;;;19.50;45.50;;;23.02;31.25;102133.31;5118417;28;20100;-63
2021/05/29 01:02:35;;;;;;;0.57;0.57;;;19.50;45.50;;;23.06;31.19;102143.78;5135845;28;20134;-62
2021/05/29 01:05:01;;;;;;;0.70;0.70;;;19.50;45.50;;;23.01;31.24;102132.44;5118011;28;20057;-63
2021/05/29 01:07:27;;;;;;;0.70;0.70;;;19.50;46.10;;;23.06;31.21;102142.91;5117954;28;20040;-63
2021/05/29 01:09:55;;;;;;;0.60;0.60;;;19.40;45.50;;;23.04;31.27;102140.31;5135116;28;20077;-62
2021/05/29 01:12:22;;;;;;;0.70;0.70;;;19.40;45.50;;;22.99;31.35;102126.34;5117783;28;20402;-63
2021/05/29 01:14:57;;;;;;;0.70;0.70;;;19.40;45.50;;;23.04;31.27;102147.44;5134964;28;20063;-62
2021/05/29 01:17:28;;;;;;;0.80;0.80;;;19.40;45.60;;;23.00;31.14;102135.19;5086469;28;20045;-63
2021/05/29 01:19:54;;;;;;;1.52;0.70;;;19.40;45.60;;;23.02;31.45;102144.84;5113990;28;20039;-63
2021/05/29 01:22:42;;;;;;;0.73;0.70;;;19.40;45.60;;;23.00;31.53;102148.53;5118361;28;20058;-63
2021/05/29 01:25:16;;;;;;;0.50;0.50;;;19.40;45.60;;;22.99;31.31;102145.00;5117853;28;20160;-63
2021/05/29 01:27:44;;;;;;;0.52;0.50;;;19.40;45.60;;;23.00;31.44;102146.72;5134524;28;20039;-63
2021/05/29 01:30:11;;;;;;;0.60;0.60;;;19.40;45.60;;;22.97;31.35;102138.91;5101147;28;20493;-63
2021/05/29 01:32:37;;;;;;;1.00;0.65;;;19.40;45.60;;;22.96;31.22;102136.28;5117981;28;20039;-62
2021/05/29 01:35:11;;;;;;;0.60;0.60;;;19.40;45.60;;;22.90;31.20;102135.66;5118131;28;20050;-63
2021/05/29 01:37:41;;;;;;;0.50;0.50;;;19.40;45.60;;;22.93;31.32;102139.97;5134893;27;20467;-62
2021/05/29 01:40:08;;;;;;;0.68;0.68;;;19.40;45.70;;;22.94;31.34;102145.22;5117447;28;20062;-63
2021/05/29 01:42:37;;;;;;;0.60;0.60;;;19.40;45.70;;;22.93;31.39;102146.16;5134602;28;20044;-63
2021/05/29 01:45:07;;;;;;;0.80;0.80;;;19.40;45.70;;;22.96;31.37;102152.31;5117291;28;20402;-63
2021/05/29 01:47:35;;;;;;;0.70;0.70;;;19.40;45.70;;;22.96;31.35;102146.97;5135070;27;20043;-62
2021/05/29 01:50:04;;;;;;;0.73;0.70;;;19.40;45.70;;;22.93;31.25;102150.63;5134590;28;20047;-63
2021/05/29 01:52:54;;;;;;;0.60;0.60;;;19.40;45.70;;;22.93;31.38;102156.81;5117477;28;20043;-63
2021/05/29 01:55:25;;;;;;;0.68;0.68;;;19.40;45.80;;;22.94;31.39;102158.56;5117362;28;20047;-63
2021/05/29 01:57:52;;;;;;;0.98;0.70;;;19.40;45.70;;;22.92;31.42;102155.13;5100513;28;20073;-62
2021/05/29 02:00:21;;;;;;;0.55;0.55;;;19.40;45.80;;;22.90;31.47;102158.78;5134439;28;20055;-63
2021/05/29 02:02:48;;;;;;;0.70;0.70;;;19.40;45.80;;;22.93;31.23;102164.81;5117174;28;20057;-63
2021/05/29 02:05:24;;;;;;;0.60;0.60;;;19.40;45.80;;;22.90;31.54;102158.78;5117199;28;20051;-63
2021/05/29 02:07:50;;;;;;;0.73;0.73;;;19.40;45.80;;;22.91;31.53;102157.84;5134047;28;20440;-63
2021/05/29 02:10:23;;;;;;;0.70;0.70;;;19.40;45.80;;;22.90;31.38;102164.13;5117018;28;20051;-63
2021/05/29 02:12:53;;;;;;;0.70;0.70;;;19.30;45.80;;;22.89;31.49;102163.28;5116825;28;20069;-63
2021/05/29 02:15:40;;;;;;;0.60;0.60;;;19.30;45.80;;;22.90;31.41;102164.13;5116932;28;20071;-63
2021/05/29 02:18:09;;;;;;;0.65;0.65;;;19.30;45.80;;;22.90;31.35;102158.78;5117437;28;20043;-63
2021/05/29 02:20:53;;;;;;;0.68;0.68;;;19.30;45.80;;;22.88;31.33;102156.19;5133924;27;20051;-63
2021/05/29 02:23:23;;;;;;;0.57;0.57;;;19.30;45.90;;;22.89;31.38;102157.94;5116859;28;20539;-63
2021/05/29 02:25:58;;;;;;;0.65;0.60;;;19.30;45.80;;;22.85;31.55;102148.34;5099731;28;20043;-63
2021/05/29 02:28:25;;;;;;;0.85;0.60;;;19.30;45.80;;;22.87;31.30;102149.16;5116690;28;20513;-63
2021/05/29 02:30:52;;;;;;;0.60;0.60;;;19.30;45.90;;;22.87;31.42;102157.16;5135073;27;20082;-63
2021/05/29 02:33:19;;;;;;;1.40;0.77;;;19.30;45.90;;;22.85;31.58;102151.00;5116564;28;20043;-63
2021/05/29 02:35:45;;;;;;;0.52;0.52;;;19.30;45.90;;;22.86;31.41;102154.56;5133654;28;20459;-63
2021/05/29 02:38:11;;;;;;;0.73;0.73;;;19.30;45.90;;;22.85;31.51;102158.16;5099507;28;20047;-63
2021/05/29 02:40:37;;;;;;;0.70;0.70;;;19.30;45.90;;;22.86;31.42;102151.88;5116500;28;20035;-63
2021/05/29 02:43:03;;;;;;;0.70;0.70;;;19.20;45.90;;;22.84;31.51;102154.63;5135207;27;20383;-63
2021/05/29 02:45:29;;;;;;;0.60;0.60;;;19.30;45.90;;;22.85;31.39;102163.47;5116312;28;20095;-62
2021/05/29 02:47:55;;;;;;;0.60;0.60;;;19.30;46.00;;;22.85;31.47;102166.16;5133776;28;20043;-63
2021/05/29 02:50:23;;;;;;;0.70;0.70;;;19.30;46.00;;;22.81;31.66;102156.59;5133347;28;20054;-63
2021/05/29 02:52:50;;;;;;;0.60;0.60;;;19.20;45.90;;;22.82;31.59;102155.63;5116304;28;20043;-63
2021/05/29 02:55:23;;;;;;;0.60;0.60;;;19.30;46.00;;;22.80;31.53;102154.84;5116525;28;20043;-62
2021/05/29 02:57:57;;;;;;;0.60;0.60;;;19.20;46.00;;;22.82;31.64;102152.97;5133593;27;20478;-63
2021/05/29 03:00:27;;;;;;;0.57;0.57;;;19.20;45.90;;;22.81;31.42;102149.44;5134977;28;20039;-62
2021/05/29 03:02:54;;;;;;;0.70;0.70;;;19.20;46.00;;;22.83;31.67;102147.56;5116261;28;20047;-63
2021/05/29 03:05:21;;;;;;;0.75;0.70;;;19.20;46.00;;;22.81;31.52;102145.94;5133298;28;20432;-63
2021/05/29 03:07:48;;;;;;;0.50;0.50;;;19.20;46.00;;;22.78;31.63;102135.41;5134322;27;20039;-62
2021/05/29 03:10:15;;;;;;;0.85;0.73;;;19.20;46.10;;;22.82;31.59;102156.53;5116167;28;20474;-63
2021/05/29 03:12:42;;;;;;;0.70;0.70;;;19.20;46.00;;;22.81;31.65;102151.25;5098812;28;20078;-63
2021/05/29 03:15:12;;;;;;;0.70;0.70;;;19.20;46.00;;;22.78;31.62;102143.41;5099323;28;20137;-63
2021/05/29 03:17:39;;;;;;;0.50;0.50;;;19.20;46.00;;;22.82;31.69;102156.53;5116382;28;20531;-63
2021/05/29 03:20:08;;;;;;;0.60;0.60;;;19.20;46.00;;;22.81;31.53;102157.44;5115811;28;20043;-62
2021/05/29 03:22:33;;;;;;;0.70;0.70;;;19.20;46.50;;;22.80;31.71;102160.19;5115776;28;20402;-63
2021/05/29 03:25:00;;;;;;;0.60;0.60;;;19.20;46.00;;;22.79;31.67;102163.78;5133005;28;20058;-63
2021/05/29 03:27:27;;;;;;;0.68;0.60;;;19.20;46.10;;;22.77;31.65;102155.88;5115789;28;20039;-63
2021/05/29 03:29:54;;;;;;;0.60;0.60;;;19.30;46.20;;;22.84;31.60;102169.78;5116101;28;20039;-62
2021/05/29 03:32:20;;;;;;;0.75;0.75;;;19.30;46.00;;;22.88;31.54;102168.69;5115591;28;20043;-63
2021/05/29 03:34:45;;;;;;;0.40;0.40;;;19.30;45.80;;;22.92;31.42;102172.91;5115440;28;20051;-62
2021/05/29 03:37:11;;;;;;;0.60;0.60;;;19.40;45.80;;;22.98;31.40;102169.09;5115451;28;20073;-63
2021/05/29 03:39:37;;;;;;;0.60;0.60;;;19.40;45.70;;;23.00;31.34;102161.88;5133916;28;20051;-62
2021/05/29 03:42:05;;;;;;;0.60;0.60;;;19.40;45.60;;;23.06;31.27;102170.47;5115811;28;20435;-62
2021/05/29 03:44:30;;;;;;;0.75;0.75;;;19.50;45.60;;;23.07;31.15;102173.97;5115250;28;20545;-63
2021/05/29 03:46:56;;;;;;;0.47;0.47;;;19.50;45.40;;;23.10;31.40;102176.50;5133816;27;20059;-62
2021/05/29 03:49:22;;;;;;;0.60;0.60;;;19.50;45.40;;;23.13;31.23;102168.34;5132284;28;20046;-62
2021/05/29 03:51:48;;;;;;;0.60;0.60;;;19.60;45.40;;;23.15;31.09;102174.47;5133805;27;20043;-63
2021/05/29 03:54:13;;;;;;;0.60;0.60;;;19.60;45.30;;;23.18;31.31;102179.66;5115177;28;20130;-62
2021/05/29 03:56:39;;;;;;;0.77;0.77;;;19.70;45.30;;;23.18;31.19;102179.66;5098413;28;20402;-63
2021/05/29 03:59:08;;;;;;;0.50;0.50;;;19.70;45.30;;;23.21;31.10;102170.63;5132606;28;20050;-63
2021/05/29 04:01:35;;;;;;;0.80;0.60;;;19.60;45.20;;;23.22;31.16;102185.69;5132555;28;20099;-63
2021/05/29 04:04:01;;;;;;;0.50;0.50;;;19.70;45.20;;;23.21;31.17;102173.31;5132429;28;20097;-63
2021/05/29 04:06:27;;;;;;;0.60;0.60;;;19.70;45.10;;;23.26;31.01;102181.94;5115163;28;20376;-62
2021/05/29 04:08:53;;;;;;;0.60;0.60;;;19.70;45.10;;;23.24;31.18;102176.66;5115717;28;20054;-63
2021/05/29 04:11:18;;;;;;;0.52;0.52;;;19.70;45.10;;;23.28;31.11;102186.22;5114828;28;20053;-62
2021/05/29 04:13:44;;;;;;;0.68;0.68;;;19.70;45.10;;;23.29;31.09;102181.78;5115483;28;20058;-62
2021/05/29 04:16:10;;;;;;;0.80;0.60;;;19.70;45.10;;;23.29;31.05;102173.78;5114943;28;20039;-63
2021/05/29 04:18:36;;;;;;;0.60;0.60;;;19.70;45.00;;;23.31;31.01;102180.75;5133464;28;20047;-63
2021/05/29 04:21:02;;;;;;;0.70;0.70;;;19.70;45.00;;;23.35;30.95;102184.13;5115233;28;20050;-63
2021/05/29 04:23:27;;;;;;;0.60;0.60;;;19.80;45.00;;;23.38;30.85;102183.09;5133449;28;20437;-63
2021/05/29 04:25:53;;;;;;;0.70;0.70;;;19.80;45.00;;;23.43;30.73;102183.72;5114901;28;20080;-62
2021/05/29 04:28:19;;;;;;;0.60;0.60;;;19.80;45.00;;;23.40;30.71;102183.88;5132226;28;20076;-63
2021/05/29 04:30:45;;;;;;;0.50;0.50;;;19.70;45.00;;;23.40;30.87;102182.06;5114829;28;20039;-63
2021/05/29 04:33:10;;;;;;;0.60;0.60;;;19.70;45.00;;;23.44;30.69;102186.31;5114803;28;20486;-63
2021/05/29 04:35:36;;;;;;;0.70;0.70;;;19.70;45.00;;;23.41;30.74;102181.16;5115350;28;20480;-63
2021/05/29 04:38:02;;;;;;;0.80;0.80;;;19.70;45.00;;;23.43;30.82;102192.59;5098100;28;20489;-63
2021/05/29 04:40:28;;;;;;;0.70;0.70;;;19.70;45.10;;;23.44;30.87;102197.00;5132475;28;20054;-63
2021/05/29 04:42:55;;;;;;;0.95;0.70;;;19.70;45.10;;;23.39;30.77;102185.69;5114674;28;20141;-63
2021/05/29 04:45:21;;;;;;;0.60;0.60;;;19.70;45.10;;;23.41;30.84;102196.31;5097519;28;20078;-62
2021/05/29 04:47:47;;;;;;;0.73;0.73;;;19.70;45.20;;;23.39;30.95;102193.72;5114661;28;20104;-63
2021/05/29 04:50:14;;;;;;;0.70;0.70;;;19.70;45.20;;;23.36;30.64;102196.53;5115225;28;20045;-63
2021/05/29 04:52:40;;;;;;;0.80;0.80;;;19.60;45.20;;;23.35;31.05;102197.47;5114879;28;20092;-63
2021/05/29 04:55:08;;;;;;;0.60;0.60;;;19.60;45.20;;;23.29;31.02;102187.13;5131596;28;20134;-63
2021/05/29 04:57:34;;;;;;;0.70;0.70;;;19.60;45.20;;;23.30;30.89;102197.72;5131536;28;20039;-63
2021/05/29 04:59:59;;;;;;;0.70;0.70;;;19.60;45.30;;;23.29;31.03;102195.97;5115207;28;20120;-63
2021/05/29 05:02:25;;;;;;;0.70;0.70;;;19.60;45.30;;;23.26;31.16;102201.47;5115039;28;20427;-63
2021/05/29 05:04:51;;;;;;;0.73;0.73;;;19.60;45.30;;;23.23;31.09;102190.09;5114403;28;20055;-63
2021/05/29 05:07:17;;;;;;;0.70;0.70;;;19.60;45.40;;;23.20;31.03;102201.78;5131322;28;20055;-64
2021/05/29 05:09:43;;;;;;;0.55;0.55;;;19.50;45.40;;;23.17;31.14;102201.06;5131623;28;20043;-63
2021/05/29 05:12:09;;;;;;;0.60;0.60;;;19.50;45.40;;;23.17;31.07;102198.41;5114809;28;20383;-64
2021/05/29 05:14:35;;;;;;;0.60;0.60;;;19.50;45.40;;;23.11;31.08;102205.78;5097369;28;20048;-63
2021/05/29 05:17:01;;;;;;;0.70;0.70;;;19.50;45.50;;;23.10;31.11;102203.19;5097427;28;20055;-63
2021/05/29 05:19:26;;;;;;;0.60;0.60;;;19.50;45.50;;;23.08;31.31;102194.38;5113789;28;20406;-63
2021/05/29 05:21:52;;;;;;;0.60;0.60;;;19.50;45.60;;;23.05;31.24;102200.69;5131375;27;20487;-63
2021/05/29 05:24:18;;;;;;;0.60;0.60;;;19.40;45.50;;;23.05;31.25;102211.38;5136090;28;20066;-63
2021/05/29 05:26:44;;;;;;;0.60;0.60;;;19.50;45.60;;;23.05;31.20;102205.19;5117940;28;20116;-63
2021/05/29 05:29:10;;;;;;;0.65;0.65;;;19.40;45.60;;;23.03;31.32;102201.72;5117902;28;20167;-63
2021/05/29 05:31:36;;;;;;;0.68;0.68;;;19.40;45.60;;;22.98;31.31;102201.94;5100579;28;20139;-63
2021/05/29 05:34:09;;;;;;;0.70;0.70;;;19.40;45.60;;;22.98;31.37;102201.09;5100751;28;20543;-63
2021/05/29 05:36:42;;;;;;;0.70;0.70;;;19.40;45.70;;;22.99;31.42;102208.13;5135013;28;20467;-62
2021/05/29 05:39:10;;;;;;;1.10;0.80;;;19.40;45.70;;;23.00;31.32;102209.88;5117768;28;20087;-63
2021/05/29 05:41:37;;;;;;;0.57;0.57;;;19.40;45.70;;;23.01;31.31;102211.63;5117536;28;20043;-63
2021/05/29 05:44:04;;;;;;;0.70;0.70;;;19.40;45.70;;;23.02;31.43;102222.22;5117407;28;20039;-63
2021/05/29 05:46:30;;;;;;;1.00;1.00;;;19.40;45.70;;;23.08;31.07;102227.25;5117299;28;20467;-63
2021/05/29 05:48:56;;;;;;;0.80;0.80;;;19.40;45.50;;;23.09;31.17;102229.00;5134886;28;20062;-63
2021/05/29 05:51:22;;;;;;;0.65;0.65;;;19.50;45.60;;;23.14;31.00;102234.13;5117384;28;20039;-63
2021/05/29 05:53:48;;;;;;;0.60;0.60;;;19.50;45.50;;;23.17;31.29;102231.31;5134964;28;20050;-63
2021/05/29 05:56:25;;;;;;;0.60;0.60;;;19.50;45.50;;;23.15;31.07;102227.81;5117651;28;20391;-62
2021/05/29 05:58:51;;;;;;;0.60;0.60;;;19.50;45.50;;;23.15;30.92;102222.47;5134455;28;20046;-63
2021/05/29 06:01:17;;;;;;;0.80;0.80;;;19.50;45.50;;;23.22;30.78;102231.94;5134282;28;20043;-63
2021/05/29 06:03:43;;;;;;;0.77;0.77;;;19.50;45.40;;;23.22;30.99;102223.03;5117316;28;20146;-63
2021/05/29 06:06:09;;;;;;;0.73;0.73;;;19.50;45.40;;;23.20;31.10;102217.78;5116915;28;20486;-63
2021/05/29 06:08:35;;;;;;;0.80;0.80;;;19.50;45.40;;;23.24;30.98;102232.72;5117172;28;20054;-63
2021/05/29 06:11:00;;;;;;;0.80;0.80;;;19.60;45.40;;;23.27;30.85;102229.00;5117045;28;20055;-63
2021/05/29 06:21:34;;;;;;;0.65;0.65;;;19.50;45.30;;;23.28;30.78;102246.75;5134277;27;20043;-63
2021/05/29 06:24:00;;;;;;;0.70;0.70;;;19.50;45.30;;;23.27;30.89;102243.25;5116769;28;20104;-63
2021/05/29 06:26:26;;;;;;;0.73;0.73;;;19.50;45.30;;;23.28;30.88;102244.94;5116789;28;20143;-63
2021/05/29 06:28:52;;;;;;;0.68;0.68;;;19.50;45.30;;;23.28;31.04;102247.63;5116705;28;20049;-63
2021/05/29 06:31:18;;;;;;;0.88;0.70;;;19.50;45.30;;;23.29;30.90;102252.03;5117111;28;20047;-63
2021/05/29 06:33:44;;;;;;;0.70;0.70;;;19.60;45.30;;;23.30;30.80;102253.75;5134974;27;20526;-63
2021/05/29 06:36:09;;;;;;;0.65;0.65;;;19.60;45.30;;;23.32;30.67;102259.00;5116986;28;20122;-62
2021/05/29 06:38:36;;;;;;;0.70;0.70;;;19.60;45.30;;;23.29;30.79;102260.03;5116367;28;20042;-62
2021/05/29 06:41:02;;;;;;;0.60;0.60;;;19.60;45.30;;;23.29;30.88;102256.50;5117058;28;20047;-63
2021/05/29 06:43:28;;;;;;;0.65;0.65;;;19.50;45.20;;;23.33;30.82;102259.88;5133976;28;20130;-63
2021/05/29 06:45:54;;;;;;;0.77;0.75;;;19.60;45.30;;;23.33;30.84;102263.41;5133738;28;20168;-63
2021/05/29 06:48:21;;;;;;;0.60;0.60;;;19.60;45.30;;;23.34;30.97;102256.25;5133784;28;20043;-62
2021/05/29 06:50:52;;;;;;;0.60;0.60;;;19.60;45.30;;;23.35;30.62;102252.66;5116700;28;20141;-63
2021/05/29 06:53:23;;;;;;;0.90;0.90;;;19.60;45.20;;;23.34;30.99;102256.25;5116205;28;20125;-62
2021/05/29 06:58:51;;;;;;;0.73;0.73;;;19.60;45.20;;;23.40;30.76;102267.47;5119123;28;20173;-63
2021/05/29 07:01:27;;;;;;;0.85;0.85;;;19.60;45.20;;;23.34;30.61;102257.13;5133220;28;20150;-63
2021/05/29 07:03:54;;;;;;;0.70;0.70;;;19.60;45.10;;;23.38;30.91;102256.03;5133337;28;20111;-62
2021/05/29 07:06:21;;;;;;;0.82;0.82;;;19.60;45.10;;;23.43;30.61;102263.81;5133298;28;20043;-63
2021/05/29 07:08:47;;;;;;;0.73;0.73;;;19.70;45.20;;;23.43;30.75;102269.16;5133368;28;20077;-62
2021/05/29 07:11:14;;;;;;;0.60;0.60;;;19.70;45.10;;;23.43;30.66;102266.47;5115890;28;20043;-63
2021/05/29 07:13:40;;;;;;;0.80;0.80;;;19.70;45.10;;;23.45;30.67;102272.59;5115945;28;20054;-63
2021/05/29 07:16:06;;;;;;;0.70;0.70;;;19.60;45.00;;;23.45;30.65;102269.94;5133143;28;20047;-63
2021/05/29 07:18:39;;;;;;;0.75;0.70;;;19.70;45.10;;;23.47;30.48;102278.72;5116388;28;20104;-63
2021/05/29 07:21:05;;;;;;;0.88;0.88;;;19.70;45.10;;;23.47;30.69;102278.72;5133272;28;20050;-62
2021/05/29 07:23:31;;;;;;;0.73;0.73;;;19.70;45.00;;;23.47;30.58;102282.28;5116190;28;20057;-62
2021/05/29 07:25:56;;;;;;;0.85;0.85;;;19.70;45.00;;;23.49;30.54;102280.38;5132935;28;20043;-63
2021/05/29 07:28:22;;;;;;;0.85;0.85;;;19.70;45.00;;;23.49;30.78;102283.06;5116206;28;20126;-63
2021/05/29 07:30:49;;;;;;;0.65;0.65;;;19.70;45.00;;;23.52;30.42;102283.84;5133185;27;20043;-63
2021/05/29 07:33:16;;;;;;;0.70;0.70;;;19.70;45.00;;;23.50;30.59;102281.25;5116241;28;20112;-63
2021/05/29 07:35:41;;;;;;;0.90;0.90;;;19.70;44.90;;;23.53;30.49;102283.75;5116361;28;20047;-62
2021/05/29 07:38:08;;;;;;;0.70;0.70;;;19.80;45.00;;;23.57;30.47;102292.47;5115697;28;20043;-63
2021/05/29 07:40:35;;;;;;;0.70;0.70;;;19.80;44.90;;;23.56;30.42;102293.44;5132734;28;20043;-63
2021/05/29 07:43:01;;;;;;;0.80;0.80;;;19.80;44.90;;;23.57;30.50;102295.16;5098573;28;20088;-63
2021/05/29 07:45:29;;;;;;;0.85;0.85;;;19.80;44.90;;;23.58;30.51;102297.75;5115124;28;20055;-62
2021/05/29 07:47:54;;;;;;;0.80;0.80;;;19.80;44.80;;;23.59;30.39;102295.94;5098982;28;20154;-63
2021/05/29 07:50:20;;;;;;;0.80;0.80;;;19.80;44.80;;;23.63;30.43;102300.19;5132961;28;20537;-63
2021/05/29 07:52:46;;;;;;;0.60;0.60;;;19.80;44.80;;;23.63;30.34;102295.69;5115321;28;20076;-63
2021/05/29 07:55:13;;;;;;;0.73;0.73;;;19.80;44.70;;;23.63;30.43;102298.38;5132962;28;20134;-62
2021/05/29 07:57:39;;;;;;;1.00;1.00;;;19.90;44.80;;;23.65;30.38;102292.94;5115388;28;20054;-62
2021/05/29 08:00:10;;;;;;;0.80;0.80;;;19.90;44.70;;;23.67;30.17;102307.09;5115309;28;20467;-62
2021/05/29 08:02:37;;;;;;;;;;;19.90;44.70;;;23.77;30.15;102300.34;5134559;27;20482;-62
2021/05/29 08:05:04;;;;;;;0.70;0.70;;;19.90;44.60;;;23.73;30.36;102300.59;5115181;28;19916;-62
2021/05/29 08:07:30;;;;;;;0.60;0.60;;;19.90;44.60;;;23.75;30.10;102310.22;5115466;28;20087;-63
2021/05/29 08:09:56;;;;;;;0.80;0.80;;;19.90;44.60;;;23.73;30.20;102298.78;5115074;28;20474;-63
2021/05/29 08:12:25;;;;;;;0.82;0.82;;;19.90;44.60;;;23.74;30.22;102303.19;5132388;28;20479;-62
2021/05/29 08:14:52;;;;;;;1.00;0.90;;;20.00;45.10;;;23.75;30.12;102293.34;5132120;28;20486;-62
2021/05/29 08:17:19;;;;;;;0.80;0.80;;;20.00;44.50;;;23.79;30.21;102303.81;5115004;28;20493;-62
2021/05/29 08:19:46;;;;;;;1.33;1.23;;;20.00;44.50;;;23.82;30.25;102306.38;5115581;28;20043;-62
2021/05/29 08:22:11;;;;;;;0.60;0.60;;;20.00;44.40;;;23.85;30.04;102310.66;5133414;28;20043;-62
2021/05/29 08:24:37;;;;;;;0.70;0.70;;;20.00;44.40;;;23.88;30.25;102315.00;5115402;28;20417;-62
2021/05/29 08:27:04;;;;;;;0.70;0.70;;;20.10;44.30;;;23.90;30.26;102313.09;5115020;28;20043;-63
2021/05/29 08:29:29;;;;;;;0.70;0.70;;;20.10;44.30;;;23.91;30.09;102309.50;5097688;28;20548;-62
2021/05/29 08:31:55;;;;;;;0.77;0.77;;;20.10;44.30;;;23.93;30.13;102310.28;5114638;28;20043;-62
2021/05/29 08:34:21;;;;;;;0.70;0.70;;;20.10;44.20;;;23.97;30.12;102310.06;5131732;28;20047;-62
2021/05/29 08:36:47;;;;;;;0.80;0.80;;;20.20;44.10;;;24.00;29.85;102307.19;5131682;28;20452;-62
2021/05/29 08:39:13;;;;;;;0.80;0.80;;;20.20;44.00;;;24.02;30.03;102313.34;5114703;28;20051;-62
2021/05/29 08:41:39;;;;;;;0.70;0.70;;;20.20;44.00;;;24.07;29.88;102317.56;5114704;28;20047;-62
2021/05/29 08:44:10;;;;;;;1.00;0.90;;;20.30;44.00;;;24.06;29.71;102308.69;5114964;28;20055;-62
2021/05/29 08:46:38;;;;;;;0.77;0.77;;;20.30;43.90;;;24.09;29.85;102311.22;5115229;28;20051;-62
2021/05/29 08:49:05;;;;;;;0.85;0.85;;;20.30;43.80;;;24.11;29.76;102316.47;5131749;28;20165;-62
2021/05/29 08:51:31;;;;;;;0.77;0.77;;;20.30;43.80;;;24.13;29.79;102314.59;5132130;27;20047;-62
2021/05/29 08:53:57;;;;;;;0.82;0.82;;;20.30;43.70;;;24.14;29.79;102321.63;5114468;28;20085;-62
2021/05/29 08:56:26;;;;;;;0.70;0.70;;;20.30;43.70;;;24.15;29.63;102323.38;5116106;28;20051;-62
2021/05/29 08:58:53;;;;;;;0.98;0.98;;;20.40;43.60;;;24.18;29.69;102317.88;5101127;28;20048;-62
2021/05/29 09:01:21;;;;;;;0.80;0.80;;;20.40;43.60;;;24.17;29.64;102317.03;5135236;27;20047;-63
2021/05/29 09:04:02;;;;;;;0.80;0.80;;;20.40;43.50;;;24.18;29.60;102310.72;5118079;28;20051;-62
2021/05/29 09:06:32;;;;;;;1.02;1.00;;;20.50;43.50;;;24.28;29.57;102331.63;5118532;28;20046;-63
2021/05/29 09:09:08;;;;;;;0.80;0.80;;;20.50;43.50;;;24.28;29.61;102337.81;5117875;28;20078;-62
2021/05/29 09:11:44;;;;;;;0.90;0.90;;;20.50;43.40;;;24.31;29.33;102339.47;5135706;28;20055;-62
2021/05/29 09:14:25;;;;;;;0.70;0.70;;;20.50;43.30;;;24.33;29.49;102337.59;5118300;28;20107;-62
2021/05/29 09:17:19;;;;;;;0.90;0.90;;;20.60;43.30;;;24.38;29.53;102340.88;5117745;28;20039;-62
2021/05/29 09:20:07;;;;;;;0.77;0.77;;;20.60;43.20;;;24.40;29.53;102341.66;5135643;28;20075;-62
2021/05/29 09:23:00;;;;;;;0.70;0.70;;;20.70;43.20;;;24.36;29.30;102329.41;5117920;28;20039;-62
2021/05/29 09:25:28;;;;;;;0.73;0.73;;;20.70;43.00;;;24.45;29.40;102338.75;5134784;28;20046;-63
2021/05/29 09:28:02;;;;;;;0.70;0.70;;;20.70;43.00;;;24.48;29.19;102344.78;5136278;27;20424;-63
2021/05/29 09:30:48;;;;;;;0.75;0.75;;;20.70;42.90;;;24.49;29.28;102340.28;5135122;28;20535;-63
2021/05/29 09:33:27;;;;;;;0.68;0.68;;;20.80;42.90;;;24.54;29.09;102343.56;5100584;28;20054;-63
2021/05/29 09:36:03;;;;;;;0.70;0.70;;;20.80;42.90;;;24.53;29.29;102342.72;5117617;28;20394;-63
2021/05/29 09:38:43;;;;;;;0.80;0.80;;;20.80;42.80;;;24.51;29.27;102327.72;5100593;28;20138;-63
2021/05/29 09:41:25;;;;;;;0.98;0.93;;;20.80;42.70;;;24.56;29.11;102337.25;5118029;28;20129;-63
2021/05/29 09:44:01;;;;;;;0.90;0.90;;;20.90;42.70;;;24.62;29.21;102351.22;5118068;28;20091;-63
2021/05/29 09:46:28;;;;;;;0.70;0.70;;;20.90;42.70;;;24.62;29.08;102345.88;5134624;28;20051;-63
2021/05/29 09:49:00;;;;;;;0.60;0.60;;;20.90;42.70;;;24.57;29.07;102339.00;5117315;28;20049;-63
2021/05/29 09:51:33;;;;;;;0.80;0.80;;;20.90;42.60;;;24.65;29.00;102354.59;5136466;27;20054;-62
2021/05/29 09:54:10;;;;;;;0.80;0.80;;;20.90;42.60;;;24.64;29.13;102349.31;5134696;28;20130;-62
2021/05/29 09:56:44;;;;;;;0.95;0.95;;;20.90;42.50;;;24.70;28.83;102360.56;5117464;28;20057;-62
2021/05/29 09:59:17;;;;;;;0.95;0.85;;;21.00;42.50;;;24.69;29.07;102349.94;5134445;28;20458;-62
2021/05/29 10:01:53;;;;;;;0.80;0.80;;;21.00;42.50;;;24.71;29.13;102353.41;5134532;28;20047;-62
2021/05/29 10:04:22;;;;;;;0.70;0.70;;;21.00;42.50;;;24.73;28.85;102348.84;5117184;28;20039;-62
2021/05/29 10:06:56;;;;;;;1.02;0.90;;;21.00;42.50;;;24.72;28.98;102350.63;5117053;28;20104;-62
2021/05/29 10:09:23;;;;;;;0.75;0.75;;;21.00;42.40;;;24.76;28.96;102357.56;5135453;27;20054;-62
2021/05/29 10:11:49;;;;;;;0.73;0.73;;;21.00;42.40;;;24.76;28.97;102348.69;5134565;28;20058;-62
2021/05/29 10:14:15;;;;;;;0.80;0.80;;;21.10;42.90;;;24.81;28.71;102351.97;5099935;28;20050;-62
2021/05/29 10:16:41;;;;;;;0.75;0.75;;;21.10;42.20;;;24.86;28.80;102357.94;5134110;28;20051;-62
2021/05/29 10:19:10;;;;;;;0.82;0.82;;;21.10;42.70;;;24.85;28.90;102345.47;5133938;28;20039;-62
2021/05/29 10:21:37;;;;;;;0.70;0.70;;;21.10;42.10;;;24.89;28.61;102340.81;5133937;28;20051;-63
2021/05/29 10:24:06;;;;;;;0.73;0.73;;;21.20;42.10;;;24.92;28.81;102354.88;5116786;28;20126;-62
2021/05/29 10:26:33;;;;;;;0.95;0.95;;;21.20;42.00;;;24.96;28.48;102361.81;5116745;28;20192;-62
2021/05/29 10:28:59;;;;;;;0.80;0.80;;;21.20;42.00;;;24.99;28.55;102358.09;5116692;28;20043;-62